Time;durP1;ratioP1;P1;durP2;ratioP2;P2;SDS_P1;SDS_P2;PMS_P1;PMS_P2;Temp;Humidity;BMP_temperature;BMP_pressure;BME280_temperature;BME280_humidity;BME280_pressure;Samples;Min_cycle;Max_cycle;Signal;HPM_P1;HPM_P2
2022/10/22 00:01:38;;;;;;;16.38;3.70;;;;;;;14.40;100.00;100674.16;5011250;28;20029;-42
2022/10/22 00:04:04;;;;;;;20.73;4.63;;;;;;;14.34;100.00;100668.75;5011374;28;20037;-42
2022/10/22 00:06:30;;;;;;;15.90;4.20;;;;;;;14.35;100.00;100673.09;5009846;28;20392;-41
2022/10/22 00:08:55;;;;;;;14.15;4.32;;;;;;;14.27;100.00;100682.31;4996510;28;20056;-42
2022/10/22 00:11:20;;;;;;;17.52;4.45;;;;;;;14.23;100.00;100671.03;4999492;28;20381;-43
2022/10/22 00:13:46;;;;;;;20.48;4.18;;;;;;;14.17;100.00;100679.19;5009217;28;20112;-43
2022/10/22 00:16:11;;;;;;;18.85;4.60;;;;;;;14.13;100.00;100681.47;5010558;28;20026;-42
2022/10/22 00:18:37;;;;;;;14.10;4.03;;;;;;;14.13;100.00;100691.47;5010737;28;20113;-42
2022/10/22 00:21:04;;;;;;;18.30;4.55;;;;;;;14.14;100.00;100695.81;5011010;28;20496;-43
2022/10/22 00:23:29;;;;;;;16.83;4.47;;;;;;;14.18;100.00;100695.19;5010618;28;20022;-43
2022/10/22 00:25:54;;;;;;;17.63;4.78;;;;;;;14.16;100.00;100694.56;5009319;28;20108;-43
2022/10/22 00:28:20;;;;;;;18.55;4.30;;;;;;;14.19;100.00;100694.19;5011362;28;20084;-42
2022/10/22 00:30:46;;;;;;;21.10;4.43;;;;;;;14.21;100.00;100700.19;5011031;28;20030;-42
2022/10/22 00:33:11;;;;;;;13.45;4.50;;;;;;;14.24;100.00;100697.09;5010405;28;20465;-43
2022/10/22 00:35:36;;;;;;;16.63;4.63;;;;;;;14.24;100.00;100699.81;5010392;28;20029;-42
2022/10/22 00:38:02;;;;;;;19.52;4.40;;;;;;;14.30;100.00;100702.69;5010630;28;20037;-42
2022/10/22 00:40:27;;;;;;;21.63;4.72;;;;;;;14.32;100.00;100701.44;5010358;28;20033;-43
2022/10/22 00:42:53;;;;;;;17.13;4.10;;;;;;;14.32;100.00;100701.44;5010276;28;20544;-42
2022/10/22 00:45:24;;;;;;;32.72;5.88;;;;;;;14.37;100.00;100714.34;5008730;28;20433;-43
2022/10/22 00:47:56;;;;;;;16.25;4.10;;;;;;;14.40;100.00;100711.22;5010269;28;20112;-43
2022/10/22 00:50:27;;;;;;;23.08;5.03;;;;;;;14.39;100.00;100707.69;5010319;28;20034;-42
2022/10/22 00:52:54;;;;;;;17.58;4.70;;;;;;;14.43;100.00;100708.94;5009129;28;20045;-42
2022/10/22 00:55:20;;;;;;;21.05;4.10;;;;;;;14.47;100.00;100709.34;5008762;28;20034;-42
2022/10/22 00:57:46;;;;;;;14.88;3.85;;;;;;;14.50;100.00;100708.91;5008893;28;20042;-42
2022/10/22 01:00:12;;;;;;;23.10;4.35;;;;;;;14.55;100.00;100709.13;5008577;28;20500;-42
2022/10/22 01:02:37;;;;;;;20.15;4.20;;;;;;;14.60;100.00;100706.63;5010147;28;20038;-42
2022/10/22 01:05:03;;;;;;;13.18;4.15;;;;;;;14.65;100.00;100706.00;5009598;28;20018;-42
2022/10/22 01:07:29;;;;;;;19.02;3.80;;;;;;;14.68;100.00;100711.00;5009839;28;20429;-41
2022/10/22 01:10:04;;;;;;;18.35;4.68;;;;;;;14.67;100.00;100704.75;5010272;28;20072;-42
2022/10/22 01:13:04;;;;;;;18.42;4.43;;;;;;;14.74;100.00;100709.31;5010252;28;20489;-42
2022/10/22 01:15:47;;;;;;;15.77;4.45;;;;;;;14.71;100.00;100716.81;4996321;28;20033;-42
2022/10/22 01:18:17;;;;;;;18.63;3.92;;;;;;;14.69;100.00;100723.47;5010001;28;20026;-41
2022/10/22 01:20:52;;;;;;;12.45;3.88;;;;;;;14.69;100.00;100718.06;5006195;28;20053;-42
2022/10/22 01:23:26;;;;;;;18.30;3.92;;;;;;;14.74;100.00;100712.00;5008950;28;20543;-42
2022/10/22 01:26:03;;;;;;;22.58;3.72;;;;;;;14.77;100.00;100719.72;5009857;28;20026;-42
2022/10/22 01:28:57;;;;;;;25.38;4.32;;;;;;;14.78;100.00;100718.69;5010242;28;20038;-43
2022/10/22 01:31:23;;;;;;;22.45;3.92;;;;;;;14.78;100.00;100715.97;5008102;28;20080;-43
2022/10/22 01:33:50;;;;;;;20.25;3.67;;;;;;;14.78;100.00;100715.97;5008601;28;20044;-42
2022/10/22 01:36:16;;;;;;;25.67;4.20;;;;;;;14.79;100.00;100723.88;5018768;28;20028;-42
2022/10/22 01:38:43;;;;;;;10.95;2.97;;;;;;;14.80;100.00;100719.31;5014587;28;20061;-42
2022/10/22 01:41:09;;;;;;;16.60;3.70;;;;;;;14.85;100.00;100717.63;5007626;28;20030;-43
2022/10/22 01:43:35;;;;;;;25.17;3.50;;;;;;;14.85;100.00;100711.34;5009462;28;20385;-43
2022/10/22 01:46:03;;;;;;;20.98;3.55;;;;;;;14.81;100.00;100707.41;5009334;28;20037;-42
2022/10/22 01:48:57;;;;;;;22.23;3.58;;;;;;;14.79;100.00;100712.22;5009848;28;20045;-42
2022/10/22 01:51:28;;;;;;;20.27;3.22;;;;;;;14.77;100.00;100711.59;5008710;28;20084;-42
2022/10/22 01:54:25;;;;;;;18.75;3.95;;;;;;;14.78;100.00;100705.13;5009709;28;20030;-41
2022/10/22 01:57:03;;;;;;;24.38;3.28;;;;;;;14.73;100.00;100705.78;5016185;28;20117;-41
2022/10/22 01:59:39;;;;;;;;;;;;;;;14.68;100.00;100708.28;5011483;28;20034;-41
2022/10/22 02:02:08;;;;;;;21.83;3.97;;;;;;;14.67;100.00;100712.88;5011613;28;19917;-43
2022/10/22 02:04:40;;;;;;;13.80;3.25;;;;;;;14.65;100.00;100716.84;5013051;28;20022;-41
2022/10/22 02:07:08;;;;;;;21.27;3.38;;;;;;;14.61;100.00;100711.03;4995791;28;20388;-42
2022/10/22 02:09:34;;;;;;;19.65;3.30;;;;;;;14.61;100.00;100712.88;5011161;28;20061;-42
2022/10/22 02:12:01;;;;;;;17.13;3.88;;;;;;;14.60;100.00;100711.22;5013957;28;20084;-42
2022/10/22 02:14:28;;;;;;;17.17;3.27;;;;;;;14.61;100.00;100718.28;5012663;28;20034;-41
2022/10/22 02:16:55;;;;;;;20.20;3.63;;;;;;;14.59;100.00;100715.00;5012343;28;20038;-43
2022/10/22 02:19:26;;;;;;;13.20;3.42;;;;;;;14.58;100.00;100710.59;5025880;28;20038;-42
2022/10/22 02:21:52;;;;;;;16.48;3.03;;;;;;;14.54;100.00;100710.19;4994483;28;20109;-43
2022/10/22 02:24:19;;;;;;;25.48;3.33;;;;;;;14.53;100.00;100713.94;5013861;28;20036;-42
2022/10/22 02:27:07;;;;;;;23.08;3.50;;;;;;;14.51;100.00;100710.59;5013465;28;20041;-41
2022/10/22 02:29:47;;;;;;;17.85;3.28;;;;;;;14.53;100.00;100708.50;4996932;28;20117;-42
2022/10/22 02:32:15;;;;;;;15.80;3.22;;;;;;;14.50;100.00;100714.31;4994777;28;20021;-42
2022/10/22 02:34:40;;;;;;;18.58;3.60;;;;;;;14.49;100.00;100718.09;5011436;28;20021;-41
2022/10/22 02:37:06;;;;;;;21.00;3.35;;;;;;;14.47;100.00;100706.63;5011918;28;20487;-42
2022/10/22 02:39:34;;;;;;;15.43;3.40;;;;;;;14.44;100.00;100709.75;5011439;28;20385;-42
2022/10/22 02:42:00;;;;;;;22.80;3.17;;;;;;;14.46;100.00;100702.25;5011097;28;20104;-42
2022/10/22 02:44:26;;;;;;;17.60;3.60;;;;;;;14.47;100.00;100709.34;5011256;28;20083;-43
2022/10/22 02:46:51;;;;;;;17.80;3.40;;;;;;;14.45;100.00;100706.81;5012062;28;20034;-41
2022/10/22 02:49:16;;;;;;;10.02;3.30;;;;;;;14.43;100.00;100708.09;5012725;28;20026;-42
2022/10/22 02:51:42;;;;;;;22.73;3.58;;;;;;;14.40;100.00;100719.34;5012859;28;20540;-42
2022/10/22 02:54:07;;;;;;;24.83;3.67;;;;;;;14.41;100.00;100718.31;5014414;28;20124;-41
2022/10/22 02:56:33;;;;;;;18.20;3.65;;;;;;;14.38;100.00;100708.72;5023256;28;20291;-40
2022/10/22 02:58:58;;;;;;;21.33;3.83;;;;;;;14.35;100.00;100714.56;5011636;28;20105;-42
2022/10/22 03:01:24;;;;;;;17.88;3.28;;;;;;;14.32;100.00;100712.25;5011586;28;20430;-41
2022/10/22 03:03:49;;;;;;;18.67;3.17;;;;;;;14.34;100.00;100709.34;5012024;28;20030;-44
2022/10/22 03:06:15;;;;;;;19.13;3.63;;;;;;;14.30;100.00;100708.94;5012036;28;20095;-42
2022/10/22 03:08:40;;;;;;;16.70;3.00;;;;;;;14.28;100.00;100711.84;5011280;28;20021;-44
2022/10/22 03:11:06;;;;;;;19.42;3.60;;;;;;;14.23;100.00;100719.78;5011539;28;20033;-42
2022/10/22 03:13:31;;;;;;;13.32;3.45;;;;;;;14.20;100.00;100717.50;5011897;28;20045;-42
2022/10/22 03:15:56;;;;;;;21.90;3.30;;;;;;;14.19;100.00;100723.97;5011296;28;20131;-41
2022/10/22 03:18:22;;;;;;;20.27;3.63;;;;;;;14.18;100.00;100722.28;5011519;28;20030;-41
2022/10/22 03:20:47;;;;;;;28.77;3.47;;;;;;;14.20;100.00;100724.78;5010473;28;20022;-43
2022/10/22 03:23:14;;;;;;;19.67;3.25;;;;;;;14.21;100.00;100724.56;5011545;28;20074;-42
2022/10/22 03:25:40;;;;;;;15.82;3.70;;;;;;;14.20;100.00;100720.19;5009677;28;20026;-41
2022/10/22 03:28:07;;;;;;;19.90;3.30;;;;;;;14.20;100.00;100719.38;5008593;28;20038;-42
2022/10/22 03:30:32;;;;;;;22.63;3.47;;;;;;;14.18;100.00;100719.56;5011024;28;20080;-42
2022/10/22 03:32:58;;;;;;;17.17;3.45;;;;;;;14.22;100.00;100720.81;5011062;28;20109;-43
2022/10/22 03:35:23;;;;;;;24.13;3.22;;;;;;;14.19;100.00;100721.25;5011045;28;20061;-42
2022/10/22 03:37:49;;;;;;;24.25;3.58;;;;;;;14.22;100.00;100723.53;5010561;28;20049;-42
2022/10/22 03:40:14;;;;;;;15.35;3.38;;;;;;;14.22;100.00;100728.94;5009505;28;20026;-42
2022/10/22 03:42:40;;;;;;;23.80;3.75;;;;;;;14.25;100.00;100722.28;5009688;28;20040;-41
2022/10/22 03:45:06;;;;;;;23.02;3.55;;;;;;;14.27;100.00;100728.31;5009566;28;20034;-42
2022/10/22 03:47:32;;;;;;;20.13;3.03;;;;;;;14.30;100.00;100733.31;5009500;28;20030;-42
2022/10/22 03:49:57;;;;;;;34.33;4.53;;;;;;;14.31;100.00;100726.03;5010876;28;20030;-44
2022/10/22 03:52:22;;;;;;;32.58;3.63;;;;;;;14.34;100.00;100731.84;5010724;28;20382;-42
2022/10/22 03:54:48;;;;;;;24.58;3.63;;;;;;;14.34;100.00;100736.44;5010629;28;20389;-42
2022/10/22 03:57:13;;;;;;;19.33;3.78;;;;;;;14.32;100.00;100738.50;5010640;28;20619;-42
2022/10/22 03:59:41;;;;;;;17.85;3.70;;;;;;;14.32;100.00;100741.22;5010871;28;20350;-42
2022/10/22 04:02:07;;;;;;;24.27;4.53;;;;;;;14.33;100.00;100737.47;5010034;28;20052;-42
2022/10/22 04:04:32;;;;;;;24.05;3.80;;;;;;;14.34;100.00;100747.25;5010612;28;20034;-42
2022/10/22 04:06:58;;;;;;;27.33;3.95;;;;;;;14.32;100.00;100738.50;5010990;28;20377;-41
2022/10/22 04:09:23;;;;;;;13.35;3.55;;;;;;;14.32;100.00;100741.22;5009639;28;20730;-43
2022/10/22 04:11:49;;;;;;;15.70;4.05;;;;;;;14.32;100.00;100743.91;4991471;28;20486;-42
2022/10/22 04:14:14;;;;;;;17.60;3.75;;;;;;;14.30;100.00;100740.59;5008992;28;20072;-42
2022/10/22 04:16:40;;;;;;;15.75;3.60;;;;;;;14.30;100.00;100743.28;5009660;28;20029;-41
2022/10/22 04:19:05;;;;;;;25.35;4.15;;;;;;;14.27;100.00;100748.09;5008841;28;20045;-42
2022/10/22 04:21:31;;;;;;;18.00;3.72;;;;;;;14.27;100.00;100741.88;5009941;28;20034;-42
2022/10/22 04:23:56;;;;;;;18.38;3.85;;;;;;;14.27;100.00;100747.28;5010136;28;20034;-42
2022/10/22 04:26:22;;;;;;;18.92;3.70;;;;;;;14.27;100.00;100741.88;5010627;28;20385;-42
2022/10/22 04:28:48;;;;;;;17.60;3.75;;;;;;;14.25;100.00;100744.75;5010149;28;20041;-42
2022/10/22 04:31:16;;;;;;;17.75;3.30;;;;;;;14.23;100.00;100749.53;5010509;28;20448;-42
2022/10/22 04:33:42;;;;;;;14.00;2.75;;;;;;;14.23;100.00;100751.44;5009920;28;20034;-42
2022/10/22 04:36:13;;;;;;;21.27;4.18;;;;;;;14.23;100.00;100751.44;5017362;28;20083;-42
2022/10/22 04:38:38;;;;;;;28.80;4.40;;;;;;;14.24;100.00;100764.75;5006961;28;20120;-43
2022/10/22 04:41:15;;;;;;;20.10;3.42;;;;;;;14.24;100.00;100758.50;5006821;28;20384;-45
2022/10/22 04:43:41;;;;;;;26.23;4.23;;;;;;;14.21;100.00;100754.31;5008176;28;20034;-42
2022/10/22 04:46:09;;;;;;;21.00;3.92;;;;;;;14.21;100.00;100761.63;5007798;28;20347;-41
2022/10/22 04:48:36;;;;;;;21.77;3.95;;;;;;;14.20;100.00;100765.38;5007270;28;20105;-41
2022/10/22 04:51:03;;;;;;;15.85;3.20;;;;;;;14.20;100.00;100771.63;5007570;28;20026;-42
2022/10/22 04:53:28;;;;;;;25.37;4.40;;;;;;;14.19;100.00;100766.41;5006228;28;20125;-44
2022/10/22 04:55:54;;;;;;;24.60;3.72;;;;;;;14.16;100.00;100775.78;5007511;28;20109;-41
2022/10/22 04:58:19;;;;;;;20.70;3.70;;;;;;;14.15;100.00;100771.41;5008049;28;20108;-42
2022/10/22 05:00:46;;;;;;;22.88;3.58;;;;;;;14.14;100.00;100777.88;5006690;28;20045;-43
2022/10/22 05:03:11;;;;;;;28.33;3.65;;;;;;;14.12;100.00;100777.25;5007265;28;20084;-42
2022/10/22 05:05:36;;;;;;;29.58;4.20;;;;;;;14.09;100.00;100777.66;5007028;28;20104;-43
2022/10/22 05:08:02;;;;;;;21.23;3.92;;;;;;;14.07;100.00;100779.72;5007205;28;20033;-43
2022/10/22 05:10:27;;;;;;;19.40;3.70;;;;;;;14.05;100.00;100789.91;5002757;28;20065;-43
2022/10/22 05:12:52;;;;;;;20.83;4.50;;;;;;;14.03;100.00;100781.16;5007514;28;20085;-43
2022/10/22 05:15:18;;;;;;;27.00;3.80;;;;;;;14.02;100.00;100795.75;5005350;28;20493;-41
2022/10/22 05:17:43;;;;;;;25.27;3.60;;;;;;;14.02;100.00;100793.03;5015084;28;20049;-42
2022/10/22 05:20:09;;;;;;;30.23;4.28;;;;;;;14.02;100.00;100791.16;5006602;28;20052;-41
2022/10/22 05:22:34;;;;;;;29.30;3.40;;;;;;;14.03;100.00;100784.72;5008142;28;20029;-41
2022/10/22 05:25:00;;;;;;;24.08;3.65;;;;;;;14.05;100.00;100795.34;5007273;28;20034;-42
2022/10/22 05:27:25;;;;;;;21.83;2.80;;;;;;;14.06;100.00;100786.19;5007377;28;20049;-41
2022/10/22 05:29:51;;;;;;;18.15;3.17;;;;;;;14.10;100.00;100790.13;5007448;28;20034;-41
2022/10/22 05:32:16;;;;;;;29.15;3.78;;;;;;;14.10;100.00;100789.31;5006454;28;20563;-41
2022/10/22 05:34:42;;;;;;;27.98;3.90;;;;;;;14.13;100.00;100787.00;5008776;28;20109;-42
2022/10/22 05:37:07;;;;;;;14.25;3.08;;;;;;;14.16;100.00;100793.88;5003285;28;20036;-41
2022/10/22 05:39:35;;;;;;;25.38;2.88;;;;;;;14.13;100.00;100795.13;5013593;28;20108;-40
2022/10/22 05:42:03;;;;;;;25.15;3.85;;;;;;;14.15;100.00;100793.06;5019579;28;20087;-41
2022/10/22 05:44:29;;;;;;;27.05;3.70;;;;;;;14.11;100.00;100802.63;5012191;28;20054;-42
2022/10/22 05:46:54;;;;;;;18.35;2.97;;;;;;;14.07;100.00;100795.13;5013595;28;20673;-42
2022/10/22 05:49:19;;;;;;;19.13;3.03;;;;;;;14.05;100.00;100801.56;5013199;28;20660;-42
2022/10/22 05:51:45;;;;;;;20.15;3.17;;;;;;;14.02;100.00;100803.88;5013510;28;20305;-42
2022/10/22 05:54:17;;;;;;;20.23;3.25;;;;;;;13.96;100.00;100805.53;5013008;28;20026;-42
2022/10/22 05:56:43;;;;;;;20.30;3.55;;;;;;;13.95;100.00;100813.84;5012477;28;20026;-44
2022/10/22 05:59:09;;;;;;;18.08;2.88;;;;;;;13.91;100.00;100812.59;5011333;28;20160;-42
2022/10/22 06:01:35;;;;;;;19.83;3.25;;;;;;;13.90;100.00;100824.44;5011540;28;20091;-42
2022/10/22 06:04:02;;;;;;;24.58;3.22;;;;;;;13.88;100.00;100813.00;5012830;28;20467;-42
2022/10/22 06:06:33;;;;;;;29.70;4.05;;;;;;;13.88;100.00;100824.66;5011983;28;20100;-41
2022/10/22 06:09:05;;;;;;;21.70;3.28;;;;;;;13.90;100.00;100821.72;5012882;28;20026;-43
2022/10/22 06:11:30;;;;;;;32.60;4.47;;;;;;;13.92;100.00;100825.06;5012743;28;20042;-42
2022/10/22 06:13:55;;;;;;;23.02;3.72;;;;;;;13.92;100.00;100836.72;5012128;28;20021;-42
2022/10/22 06:16:21;;;;;;;18.55;3.25;;;;;;;13.93;100.00;100832.13;5011992;28;20034;-42
2022/10/22 06:18:46;;;;;;;20.00;3.38;;;;;;;13.91;100.00;100839.66;5012362;28;20038;-41
2022/10/22 06:21:13;;;;;;;28.23;2.85;;;;;;;13.92;100.00;100838.59;5011653;28;20037;-44
2022/10/22 06:23:40;;;;;;;17.75;3.00;;;;;;;13.92;100.00;100847.53;5012265;28;20081;-41
2022/10/22 06:26:06;;;;;;;20.52;3.17;;;;;;;13.93;100.00;100849.22;5013080;28;20026;-41
2022/10/22 06:28:32;;;;;;;23.00;3.45;;;;;;;13.93;100.00;100842.97;5013107;28;20160;-42
2022/10/22 06:30:58;;;;;;;20.92;3.78;;;;;;;13.95;100.00;100849.00;5011454;28;20064;-42
2022/10/22 06:33:24;;;;;;;19.45;2.58;;;;;;;14.01;100.00;100845.50;5012762;28;20071;-41
2022/10/22 06:35:50;;;;;;;20.80;3.65;;;;;;;14.00;100.00;100849.22;5012785;28;20466;-41
2022/10/22 06:38:15;;;;;;;16.83;2.88;;;;;;;14.02;100.00;100858.81;5012871;28;20026;-42
2022/10/22 06:40:43;;;;;;;16.77;2.90;;;;;;;14.09;100.00;100864.25;5012803;28;20386;-42
2022/10/22 06:43:10;;;;;;;23.00;2.83;;;;;;;14.11;100.00;100867.56;5012865;28;20504;-43
2022/10/22 06:45:35;;;;;;;18.67;3.20;;;;;;;14.16;100.00;100866.97;5012113;28;20080;-42
2022/10/22 06:48:01;;;;;;;18.05;2.75;;;;;;;14.18;100.00;100871.13;5012693;28;20470;-43
2022/10/22 06:50:26;;;;;;;17.40;2.92;;;;;;;14.19;100.00;100878.25;5012657;28;20025;-42
2022/10/22 06:52:51;;;;;;;18.35;3.08;;;;;;;14.22;100.00;100877.00;5012682;28;20021;-41
2022/10/22 06:55:16;;;;;;;23.42;4.15;;;;;;;14.24;100.00;100889.28;5012582;28;20065;-42
2022/10/22 06:57:42;;;;;;;20.35;3.20;;;;;;;14.24;100.00;100894.69;5012345;28;20500;-41
2022/10/22 07:00:08;;;;;;;29.55;3.55;;;;;;;14.25;100.00;100890.94;5012376;28;20524;-41
2022/10/22 07:02:33;;;;;;;20.42;3.30;;;;;;;14.29;100.00;100896.78;5012432;28;20045;-42
2022/10/22 07:04:59;;;;;;;20.80;2.67;;;;;;;14.31;100.00;100896.56;5012747;28;20054;-42
2022/10/22 07:07:24;;;;;;;21.90;3.03;;;;;;;14.28;100.00;100895.94;5012418;28;20058;-42
2022/10/22 07:09:49;;;;;;;19.15;3.10;;;;;;;14.28;100.00;100890.53;5012483;28;20041;-42
2022/10/22 07:12:15;;;;;;;21.27;2.58;;;;;;;14.28;100.00;100906.78;5012274;28;20109;-42
2022/10/22 07:14:41;;;;;;;25.40;3.05;;;;;;;14.24;100.00;100905.53;5012369;28;20026;-40
2022/10/22 07:17:06;;;;;;;18.65;2.85;;;;;;;14.25;100.00;100912.59;5012405;28;20029;-42
2022/10/22 07:19:31;;;;;;;11.00;2.13;;;;;;;14.26;100.00;100919.66;5012558;28;20107;-41
2022/10/22 07:21:57;;;;;;;28.77;3.88;;;;;;;14.26;100.00;100932.38;5012042;28;20485;-41
2022/10/22 07:24:22;;;;;;;17.67;2.38;;;;;;;14.24;100.00;100937.16;5012193;28;20034;-42
2022/10/22 07:26:47;;;;;;;24.38;3.60;;;;;;;14.25;100.00;100928.84;5011887;28;20057;-42
2022/10/22 07:29:14;;;;;;;18.98;3.25;;;;;;;14.23;100.00;100941.75;5012544;28;20030;-43
2022/10/22 07:31:40;;;;;;;11.88;2.42;;;;;;;14.30;100.00;100941.78;5011960;28;20103;-41
2022/10/22 07:34:05;;;;;;;19.02;2.53;;;;;;;14.37;100.00;100955.31;5011060;28;20421;-42
2022/10/22 07:36:31;;;;;;;17.65;2.65;;;;;;;14.39;100.00;100964.06;5012108;28;20026;-42
2022/10/22 07:38:58;;;;;;;22.98;3.28;;;;;;;14.37;100.00;100968.84;5012062;28;20113;-42
2022/10/22 07:41:23;;;;;;;21.08;3.05;;;;;;;14.42;100.00;100960.94;5011697;28;20030;-42
2022/10/22 07:43:49;;;;;;;16.02;2.60;;;;;;;14.42;100.00;100969.06;5011893;28;20022;-42
2022/10/22 07:46:14;;;;;;;14.90;2.30;;;;;;;14.39;100.00;100966.78;5011667;28;20065;-43
2022/10/22 07:48:40;;;;;;;19.70;2.58;;;;;;;14.40;100.00;100973.84;5012194;28;20030;-42
2022/10/22 07:51:05;;;;;;;25.73;2.67;;;;;;;14.42;100.00;100971.78;5011747;28;20425;-42
2022/10/22 07:53:30;;;;;;;21.40;3.63;;;;;;;14.45;100.00;100976.78;5011597;28;20095;-42
2022/10/22 07:55:57;;;;;;;25.17;2.83;;;;;;;14.48;100.00;100981.78;5011412;28;20021;-41
2022/10/22 07:58:23;;;;;;;20.05;2.70;;;;;;;14.46;100.00;100982.00;5010764;28;20061;-41
2022/10/22 08:00:49;;;;;;;12.10;2.05;;;;;;;14.46;100.00;100989.31;5011452;28;20041;-41
2022/10/22 08:03:16;;;;;;;21.75;3.45;;;;;;;14.52;100.00;100983.06;5010045;28;20440;-44
2022/10/22 08:05:45;;;;;;;27.08;2.88;;;;;;;14.60;100.00;100990.19;5011596;28;20030;-43
2022/10/22 08:08:14;;;;;;;22.98;3.40;;;;;;;14.65;100.00;100998.53;5011196;28;20105;-42
2022/10/22 08:10:40;;;;;;;20.13;3.35;;;;;;;14.67;100.00;101001.91;5011518;28;20345;-42
2022/10/22 08:13:06;;;;;;;22.00;2.75;;;;;;;14.76;100.00;101003.34;5011135;28;20018;-41
2022/10/22 08:15:31;;;;;;;17.13;3.03;;;;;;;14.85;100.00;101009.41;5011334;28;20042;-42
2022/10/22 08:17:57;;;;;;;22.05;3.00;;;;;;;15.04;100.00;101013.22;5011278;28;20033;-42
2022/10/22 08:20:22;;;;;;;18.17;2.50;;;;;;;15.65;100.00;101009.41;5011425;28;20022;-43
2022/10/22 08:22:47;;;;;;;24.08;2.83;;;;;;;16.35;100.00;101005.06;5011144;28;20607;-42
2022/10/22 08:25:14;;;;;;;17.52;2.60;;;;;;;16.58;98.38;101020.81;5011043;28;20103;-42
2022/10/22 08:27:39;;;;;;;19.60;2.80;;;;;;;16.63;96.60;101018.28;5011054;28;20026;-42
2022/10/22 08:30:05;;;;;;;18.58;2.35;;;;;;;17.04;95.36;101018.91;5011051;28;20415;-41
2022/10/22 08:32:31;;;;;;;19.35;2.40;;;;;;;16.89;93.74;101011.03;5010749;28;20068;-41
2022/10/22 08:34:56;;;;;;;19.30;2.67;;;;;;;16.87;93.51;101019.41;5011177;28;20040;-41
2022/10/22 08:37:21;;;;;;;23.50;2.47;;;;;;;16.42;94.65;101027.56;5010836;28;20104;-43
2022/10/22 08:39:47;;;;;;;19.30;2.50;;;;;;;16.00;98.34;101028.97;5010977;28;20438;-42
2022/10/22 08:42:37;;;;;;;18.40;2.30;;;;;;;16.17;99.29;101034.81;5011324;28;20022;-43
2022/10/22 08:45:02;;;;;;;21.40;2.83;;;;;;;16.93;96.42;101033.16;5010981;28;20033;-43
2022/10/22 08:48:02;;;;;;;15.48;2.58;;;;;;;17.26;92.79;101032.94;5010699;28;20084;-40
2022/10/22 08:50:35;;;;;;;17.92;3.10;;;;;;;17.42;91.43;101039.72;5009665;28;20332;-42
2022/10/22 08:53:06;;;;;;;14.20;2.35;;;;;;;17.68;89.49;101036.75;5010696;28;20036;-42
2022/10/22 08:55:32;;;;;;;14.18;2.75;;;;;;;18.08;87.30;101047.25;5009551;28;20034;-43
2022/10/22 08:58:04;;;;;;;18.83;2.65;;;;;;;17.99;85.96;101043.19;5009106;28;20492;-42
2022/10/22 09:00:43;;;;;;;16.30;2.60;;;;;;;17.42;88.37;101045.16;5009336;28;20030;-43
2022/10/22 09:03:31;;;;;;;21.20;2.53;;;;;;;17.63;89.88;101042.03;5010562;28;20034;-41
2022/10/22 09:06:17;;;;;;;15.35;2.45;;;;;;;17.50;88.89;101056.59;5009553;28;20030;-42
2022/10/22 09:08:44;;;;;;;11.40;2.00;;;;;;;17.42;89.56;101061.50;5008903;28;20112;-42
2022/10/22 09:11:09;;;;;;;19.95;2.80;;;;;;;17.19;91.03;101064.78;4992824;28;20066;-42
2022/10/22 09:13:35;;;;;;;22.85;2.95;;;;;;;16.93;92.44;101069.38;5010457;28;20565;-42
2022/10/22 09:16:14;;;;;;;13.25;2.58;;;;;;;16.72;93.16;101072.38;5010569;28;20161;-41
2022/10/22 09:19:01;;;;;;;13.93;2.50;;;;;;;16.84;94.37;101070.66;5009477;28;20064;-41
2022/10/22 09:21:51;;;;;;;17.80;2.58;;;;;;;16.91;93.37;101082.34;5010615;28;20105;-42
2022/10/22 09:24:41;;;;;;;20.50;3.10;;;;;;;16.65;93.77;101080.56;5010677;28;20037;-42
2022/10/22 09:27:13;;;;;;;24.10;3.10;;;;;;;16.74;94.30;101090.13;5009129;28;20026;-42
2022/10/22 09:29:39;;;;;;;18.98;2.67;;;;;;;16.79;94.19;101089.50;5010294;28;20144;-42
2022/10/22 09:32:04;;;;;;;18.67;2.50;;;;;;;16.83;93.92;101082.59;5010231;28;20046;-42
2022/10/22 09:34:30;;;;;;;27.75;2.22;;;;;;;16.77;93.84;101089.75;5010352;28;20025;-40
2022/10/22 09:37:01;;;;;;;23.23;2.67;;;;;;;16.71;94.78;101101.44;5008637;28;20033;-42
2022/10/22 09:39:36;;;;;;;18.85;2.72;;;;;;;16.67;94.57;101084.75;5004931;28;20029;-41
2022/10/22 09:42:02;;;;;;;18.77;2.42;;;;;;;16.78;94.35;101099.56;5009667;28;20113;-43
2022/10/22 09:44:27;;;;;;;25.83;3.28;;;;;;;16.75;93.36;101107.28;5013046;28;20029;-42
2022/10/22 09:46:53;;;;;;;18.30;3.05;;;;;;;16.77;93.61;101106.06;5009652;28;20060;-42
2022/10/22 09:49:20;;;;;;;26.52;2.78;;;;;;;16.80;93.86;101102.91;5009427;28;20454;-42
2022/10/22 09:51:57;;;;;;;30.58;3.15;;;;;;;16.96;93.17;101106.16;5015869;28;20022;-41
2022/10/22 09:54:23;;;;;;;27.30;3.33;;;;;;;17.06;92.79;101103.78;5009110;28;20030;-41
2022/10/22 09:56:57;;;;;;;62.38;10.75;;;;;;;17.09;92.03;101111.53;5009577;28;20022;-42
2022/10/22 09:59:26;;;;;;;28.77;3.47;;;;;;;17.17;91.87;101116.72;5009042;28;20107;-41
2022/10/22 10:01:57;;;;;;;24.10;3.80;;;;;;;17.20;91.61;101115.44;5007858;28;20030;-42
2022/10/22 10:04:23;;;;;;;26.48;3.17;;;;;;;17.18;91.02;101117.53;5009563;28;20405;-41
2022/10/22 10:06:54;;;;;;;23.80;3.65;;;;;;;17.23;90.52;101123.97;5009256;28;20053;-42
2022/10/22 10:09:22;;;;;;;22.58;2.97;;;;;;;17.39;89.42;101129.94;5008285;28;20076;-42
2022/10/22 10:11:47;;;;;;;;;;;;;;;17.42;89.04;101129.50;5008686;28;20038;-43
2022/10/22 10:14:33;;;;;;;27.45;3.15;;;;;;;17.49;88.78;101127.56;5009620;28;19924;-43
2022/10/22 10:17:21;;;;;;;23.52;3.42;;;;;;;17.65;88.54;101128.91;5009500;28;20030;-41
2022/10/22 10:20:32;;;;;;;30.73;3.20;;;;;;;17.72;87.44;101135.97;5008092;28;20028;-43
2022/10/22 10:23:40;;;;;;;30.65;3.88;;;;;;;17.86;87.24;101147.63;4983157;28;20403;-42
2022/10/22 10:26:14;;;;;;;30.48;3.53;;;;;;;18.03;85.57;101147.88;5009239;28;20506;-43
2022/10/22 10:28:49;;;;;;;24.83;3.65;;;;;;;18.05;85.68;101153.94;5025469;28;20033;-43
2022/10/22 10:31:33;;;;;;;29.25;3.63;;;;;;;18.06;84.53;101152.91;5013869;28;20050;-42
2022/10/22 10:34:07;;;;;;;34.90;3.35;;;;;;;18.03;84.25;101164.22;4992098;28;20133;-42
2022/10/22 10:36:39;;;;;;;37.10;3.63;;;;;;;18.24;83.96;101167.59;5010135;28;20041;-44
2022/10/22 10:39:11;;;;;;;24.90;3.33;;;;;;;18.23;83.76;101169.47;5011579;28;20038;-42
2022/10/22 10:41:54;;;;;;;26.92;3.55;;;;;;;18.51;82.20;101154.50;5011347;28;20098;-43
2022/10/22 10:44:38;;;;;;;24.50;2.97;;;;;;;18.37;80.67;101164.72;5010546;28;20088;-42
2022/10/22 10:47:11;;;;;;;31.85;3.40;;;;;;;18.20;80.91;101176.22;5012897;28;20022;-42
2022/10/22 10:49:36;;;;;;;27.00;3.47;;;;;;;18.21;81.20;101169.69;5009332;28;20078;-41
2022/10/22 10:52:05;;;;;;;23.67;2.83;;;;;;;18.29;81.64;101173.19;5009756;28;20434;-42
2022/10/22 10:54:40;;;;;;;37.58;3.95;;;;;;;18.57;82.16;101169.97;5007884;28;20058;-42
2022/10/22 10:57:05;;;;;;;37.63;3.75;;;;;;;18.56;80.85;101174.59;5010527;28;20053;-44
2022/10/22 10:59:45;;;;;;;22.92;2.92;;;;;;;18.42;79.91;101171.16;5013752;28;20049;-41
2022/10/22 11:02:56;;;;;;;23.98;2.85;;;;;;;18.60;79.38;101174.97;5008854;28;20061;-41
2022/10/22 11:05:40;;;;;;;18.95;2.83;;;;;;;18.85;78.82;101188.53;4998466;28;20056;-42
2022/10/22 11:08:24;;;;;;;30.40;3.42;;;;;;;18.51;79.28;101181.75;5009154;28;20435;-41
2022/10/22 11:11:10;;;;;;;28.05;3.25;;;;;;;18.62;78.93;101190.03;5007694;28;20058;-44
2022/10/22 11:13:47;;;;;;;20.08;3.08;;;;;;;18.45;78.49;101191.69;4988820;28;20157;-42
2022/10/22 11:16:36;;;;;;;29.88;3.42;;;;;;;18.19;78.73;101190.91;4988814;28;20018;-41
2022/10/22 11:19:19;;;;;;;21.85;3.63;;;;;;;18.20;79.06;101198.00;4989469;28;20038;-41
2022/10/22 11:22:05;;;;;;;32.72;3.75;;;;;;;17.93;79.02;101199.28;4988496;28;20117;-41